Time;durP1;ratioP1;P1;durP2;ratioP2;P2;SDS_P1;SDS_P2;PMS_P1;PMS_P2;Temp;Humidity;BMP_temperature;BMP_pressure;BME280_temperature;BME280_humidity;BME280_pressure;Samples;Min_cycle;Max_cycle;Signal;HPM_P1;HPM_P2
2023/12/15 00:00:39;;;;;;;20.75;10.90;;;;;;;4.91;100.00;102522.66;5073156;28;20487;-56
2023/12/15 00:03:09;;;;;;;21.13;12.10;;;;;;;4.92;100.00;102526.09;5073271;28;20048;-57
2023/12/15 00:05:37;;;;;;;18.27;12.00;;;;;;;4.97;100.00;102526.91;5073204;28;20122;-56
2023/12/15 00:08:05;;;;;;;17.98;11.55;;;;;;;4.97;100.00;102523.44;5072839;28;20064;-54
2023/12/15 00:10:35;;;;;;;21.00;12.45;;;;;;;4.99;100.00;102530.38;5073382;28;20177;-55
2023/12/15 00:13:03;;;;;;;22.92;11.45;;;;;;;5.00;100.00;102541.66;5073180;28;20044;-55
2023/12/15 00:15:31;;;;;;;18.90;10.65;;;;;;;4.99;100.00;102543.41;5073012;28;20059;-55
2023/12/15 00:18:02;;;;;;;20.15;10.65;;;;;;;5.01;100.00;102545.97;5070623;28;20411;-57
2023/12/15 00:20:32;;;;;;;19.02;10.70;;;;;;;5.01;100.00;102545.97;5069695;28;20080;-44
2023/12/15 00:23:00;;;;;;;18.35;10.57;;;;;;;4.99;100.00;102550.34;5071098;28;20165;-45
2023/12/15 00:25:28;;;;;;;18.02;10.63;;;;;;;5.00;100.00;102549.47;5069473;28;20303;-49
2023/12/15 00:27:56;;;;;;;20.85;10.75;;;;;;;5.00;100.00;102550.31;5067886;28;20048;-49
2023/12/15 00:30:25;;;;;;;20.23;11.23;;;;;;;5.04;100.00;102553.75;5069741;28;20075;-55
2023/12/15 00:32:53;;;;;;;16.48;10.65;;;;;;;5.04;100.00;102554.59;5072235;28;20098;-56
2023/12/15 00:35:21;;;;;;;18.88;10.80;;;;;;;5.05;100.00;102558.94;5071060;28;20052;-55
2023/12/15 00:37:51;;;;;;;20.20;10.95;;;;;;;5.06;100.00;102567.66;5072522;28;20048;-55
2023/12/15 00:40:19;;;;;;;19.90;11.07;;;;;;;5.05;100.00;102556.34;5072958;28;20048;-55
2023/12/15 00:42:52;;;;;;;20.95;11.57;;;;;;;5.05;100.00;102565.91;5072788;28;20462;-55
2023/12/15 00:45:20;;;;;;;21.40;11.82;;;;;;;5.03;100.00;102559.84;5072748;28;20487;-57
2023/12/15 00:47:48;;;;;;;18.27;11.82;;;;;;;5.02;100.00;102561.59;5072114;28;20040;-55
2023/12/15 00:50:17;;;;;;;22.60;12.73;;;;;;;5.03;100.00;102563.34;5069024;28;20421;-56
2023/12/15 00:52:45;;;;;;;22.77;12.98;;;;;;;5.02;100.00;102559.00;5070435;28;20041;-54
2023/12/15 00:55:15;;;;;;;21.00;12.52;;;;;;;5.01;100.00;102557.25;5072567;28;20040;-55
2023/12/15 00:57:43;;;;;;;21.98;12.52;;;;;;;5.05;100.00;102565.91;5072164;28;20049;-55
2023/12/15 01:00:12;;;;;;;22.42;13.13;;;;;;;5.03;100.00;102560.72;5072052;28;20052;-56
2023/12/15 01:02:41;;;;;;;24.00;12.63;;;;;;;5.05;100.00;102563.31;5072149;28;20048;-55
2023/12/15 01:05:09;;;;;;;23.70;13.25;;;;;;;5.08;100.00;102560.66;5071931;28;20131;-55
2023/12/15 01:07:38;;;;;;;20.20;12.77;;;;;;;5.10;100.00;102564.13;5071989;28;20052;-55
2023/12/15 01:10:07;;;;;;;25.48;14.23;;;;;;;5.10;100.00;102571.06;5072041;28;20071;-54
2023/12/15 01:12:36;;;;;;;22.27;13.55;;;;;;;5.10;100.00;102576.28;5072060;28;20090;-56
2023/12/15 01:15:05;;;;;;;30.10;14.93;;;;;;;5.10;100.00;102579.75;5071901;28;20040;-54
2023/12/15 01:17:33;;;;;;;24.50;16.13;;;;;;;5.10;100.00;102582.38;5071942;28;20487;-55
2023/12/15 01:20:02;;;;;;;23.35;14.52;;;;;;;5.10;100.00;102582.38;5071839;28;20049;-55
2023/12/15 01:22:33;;;;;;;30.73;16.73;;;;;;;5.11;100.00;102578.00;5069340;28;20055;-54
2023/12/15 01:25:01;;;;;;;26.25;15.68;;;;;;;5.10;100.00;102581.50;5068755;28;20058;-55
2023/12/15 01:27:30;;;;;;;30.00;17.60;;;;;;;5.12;100.00;102587.56;5070502;28;20040;-55
2023/12/15 01:29:59;;;;;;;28.63;16.73;;;;;;;5.16;100.00;102587.47;5071735;28;20058;-54
2023/12/15 01:32:27;;;;;;;27.55;16.17;;;;;;;5.16;100.00;102597.06;5071645;28;20048;-55
2023/12/15 01:34:57;;;;;;;26.02;17.38;;;;;;;5.16;100.00;102599.69;5071172;28;20128;-54
2023/12/15 01:37:25;;;;;;;33.70;18.27;;;;;;;5.18;100.00;102605.72;5070351;28;20052;-56
2023/12/15 01:39:53;;;;;;;28.17;17.92;;;;;;;5.20;100.00;102610.03;5071676;28;20079;-55
2023/12/15 01:42:21;;;;;;;32.08;18.55;;;;;;;5.20;100.00;102614.41;5071703;28;20044;-57
2023/12/15 01:44:49;;;;;;;31.10;19.00;;;;;;;5.19;100.00;102617.88;5071733;28;20053;-56
2023/12/15 01:47:21;;;;;;;32.33;18.23;;;;;;;5.25;100.00;102626.47;5069655;28;20040;-56
2023/12/15 01:49:49;;;;;;;31.57;19.70;;;;;;;5.22;100.00;102618.72;5068528;28;20391;-56
2023/12/15 01:52:17;;;;;;;31.75;20.80;;;;;;;5.21;100.00;102616.97;5071493;28;20048;-57
2023/12/15 01:54:45;;;;;;;31.90;18.95;;;;;;;5.21;100.00;102621.34;5071537;28;20056;-55
2023/12/15 01:57:17;;;;;;;37.50;19.45;;;;;;;5.24;100.00;102627.34;5071036;28;20041;-56
2023/12/15 01:59:46;;;;;;;41.28;22.00;;;;;;;5.23;100.00;102630.00;5070901;28;20048;-56
2023/12/15 02:02:17;;;;;;;36.20;20.75;;;;;;;5.25;100.00;102629.09;5071004;28;20126;-56
2023/12/15 02:04:47;;;;;;;37.17;22.23;;;;;;;5.27;100.00;102625.59;5071270;28;20159;-55
2023/12/15 02:07:15;;;;;;;40.28;22.55;;;;;;;5.25;100.00;102629.09;5071446;28;20051;-58
2023/12/15 02:09:44;;;;;;;37.92;22.55;;;;;;;5.29;100.00;102624.72;5071263;28;20045;-56
2023/12/15 02:12:12;;;;;;;39.72;23.50;;;;;;;5.30;100.00;102626.41;5071312;28;20131;-56
2023/12/15 02:14:43;;;;;;;39.25;22.48;;;;;;;5.31;100.00;102642.94;5071510;28;20060;-55
2023/12/15 02:17:12;;;;;;;40.25;23.92;;;;;;;5.34;100.00;102633.31;5071440;28;20353;-48
2023/12/15 02:19:40;;;;;;;40.75;23.73;;;;;;;5.34;100.00;102640.28;5071309;28;20204;-46
2023/12/15 02:22:10;;;;;;;41.08;23.00;;;;;;;5.35;100.00;102649.84;5071526;28;20052;-45
2023/12/15 02:24:40;;;;;;;41.20;23.52;;;;;;;5.34;100.00;102654.19;5069936;28;20056;-55
2023/12/15 02:27:08;;;;;;;41.90;23.48;;;;;;;5.36;100.00;102656.78;5071394;28;20791;-55
2023/12/15 02:29:36;;;;;;;39.15;22.85;;;;;;;5.35;100.00;102661.13;5071060;28;20041;-55
2023/12/15 02:32:05;;;;;;;42.20;24.33;;;;;;;5.36;100.00;102667.22;5071350;28;20064;-55
2023/12/15 02:34:33;;;;;;;49.00;24.67;;;;;;;5.38;100.00;102666.28;5071158;28;20120;-55
2023/12/15 02:37:01;;;;;;;46.72;25.92;;;;;;;5.41;100.00;102671.50;5071080;28;20033;-55
2023/12/15 02:39:30;;;;;;;45.53;24.83;;;;;;;5.41;100.00;102675.81;5071258;28;20519;-57
2023/12/15 02:41:59;;;;;;;43.90;24.33;;;;;;;5.42;100.00;102683.63;5071012;28;20037;-57
2023/12/15 02:44:27;;;;;;;43.50;24.88;;;;;;;5.41;100.00;102675.81;5071024;28;20102;-57
2023/12/15 02:46:55;;;;;;;43.17;24.48;;;;;;;5.43;100.00;102681.91;5073606;28;20048;-57
2023/12/15 02:49:24;;;;;;;43.28;25.52;;;;;;;5.46;100.00;102676.63;5074510;28;20137;-57
2023/12/15 02:51:52;;;;;;;44.45;25.65;;;;;;;5.47;100.00;102683.59;5074643;28;20438;-55
2023/12/15 02:54:21;;;;;;;43.78;24.65;;;;;;;5.47;100.00;102685.31;5074566;28;20565;-55
2023/12/15 02:56:49;;;;;;;42.78;24.85;;;;;;;5.46;100.00;102692.28;5074404;28;20052;-56
2023/12/15 02:59:18;;;;;;;47.67;24.60;;;;;;;5.47;100.00;102696.63;5074331;28;20120;-56
2023/12/15 03:01:46;;;;;;;44.22;24.95;;;;;;;5.48;100.00;102698.38;5074366;28;20040;-55
2023/12/15 03:04:15;;;;;;;46.85;25.40;;;;;;;5.47;100.00;102712.28;5074240;28;20032;-56
2023/12/15 03:06:43;;;;;;;54.80;26.85;;;;;;;5.46;100.00;102715.78;5074566;28;20506;-55
2023/12/15 03:09:11;;;;;;;53.05;26.13;;;;;;;5.48;100.00;102716.63;5074312;28;20135;-56
2023/12/15 03:11:39;;;;;;;48.38;25.50;;;;;;;5.49;100.00;102707.06;5074200;28;20045;-54
2023/12/15 03:14:08;;;;;;;50.53;26.10;;;;;;;5.52;100.00;102713.09;5074273;28;20044;-57
2023/12/15 03:16:37;;;;;;;52.20;26.40;;;;;;;5.52;100.00;102707.00;5074018;28;20139;-56
2023/12/15 03:19:05;;;;;;;48.10;25.08;;;;;;;5.53;100.00;102706.97;5073914;28;20044;-56
2023/12/15 03:21:33;;;;;;;47.97;25.30;;;;;;;5.54;100.00;102706.09;5073990;28;20380;-57
2023/12/15 03:24:02;;;;;;;53.63;27.65;;;;;;;5.54;100.00;102715.69;5073962;28;20056;-55
2023/12/15 03:26:30;;;;;;;54.45;27.13;;;;;;;5.53;100.00;102725.25;5073557;28;20052;-56
2023/12/15 03:28:58;;;;;;;56.28;25.95;;;;;;;5.55;100.00;102726.09;5073670;28;20474;-56
2023/12/15 03:31:27;;;;;;;54.45;27.98;;;;;;;5.57;100.00;102726.94;5073476;28;20530;-57
2023/12/15 03:33:56;;;;;;;59.85;26.75;;;;;;;5.62;100.00;102731.22;5070930;28;20060;-57
2023/12/15 03:36:24;;;;;;;57.05;28.08;;;;;;;5.63;100.00;102739.06;5070215;28;20057;-56
2023/12/15 03:38:52;;;;;;;58.63;26.92;;;;;;;5.59;100.00;102737.38;5070804;28;20492;-57
2023/12/15 03:41:23;;;;;;;53.03;25.58;;;;;;;5.59;100.00;102743.44;5071249;28;20044;-56
2023/12/15 03:43:51;;;;;;;56.72;28.02;;;;;;;5.60;100.00;102739.06;5073478;28;20048;-56
2023/12/15 03:46:19;;;;;;;66.03;28.95;;;;;;;5.60;100.00;102744.28;5073663;28;20542;-57
2023/12/15 03:48:48;;;;;;;52.47;28.23;;;;;;;5.63;100.00;102746.00;5073476;28;20048;-56
2023/12/15 03:51:20;;;;;;;60.63;27.42;;;;;;;5.63;100.00;102741.66;5073484;28;20090;-55
2023/12/15 03:53:48;;;;;;;58.00;27.70;;;;;;;5.66;100.00;102743.34;5072329;28;20057;-56
2023/12/15 03:56:24;;;;;;;66.43;28.92;;;;;;;5.64;100.00;102739.91;5068424;28;20143;-56
2023/12/15 03:58:52;;;;;;;68.57;29.02;;;;;;;5.64;100.00;102739.91;5071697;28;20472;-56
2023/12/15 04:01:21;;;;;;;67.18;29.92;;;;;;;5.64;100.00;102745.13;5072126;28;20048;-56
2023/12/15 04:03:49;;;;;;;61.08;29.38;;;;;;;5.65;100.00;102752.09;5073231;28;20048;-56
2023/12/15 04:06:17;;;;;;;63.78;30.65;;;;;;;5.62;100.00;102750.38;5073485;28;20063;-56
2023/12/15 04:08:47;;;;;;;69.28;29.17;;;;;;;5.65;100.00;102750.31;5071912;28;20418;-56
2023/12/15 04:11:17;;;;;;;62.70;28.75;;;;;;;5.65;100.00;102752.94;5073216;28;20048;-57
2023/12/15 04:13:45;;;;;;;64.57;29.10;;;;;;;5.68;100.00;102758.09;5071601;28;20462;-56
2023/12/15 04:16:14;;;;;;;57.75;27.55;;;;;;;5.70;100.00;102764.19;5073164;28;20144;-57
2023/12/15 04:18:42;;;;;;;64.15;27.27;;;;;;;5.71;100.00;102772.88;5073052;28;20041;-56
2023/12/15 04:21:10;;;;;;;64.45;29.42;;;;;;;5.70;100.00;102771.13;5070740;28;20079;-56
2023/12/15 04:23:41;;;;;;;69.60;31.02;;;;;;;5.70;100.00;102782.47;5068332;28;20131;-56
2023/12/15 04:26:11;;;;;;;66.53;29.33;;;;;;;5.70;100.00;102776.34;5069674;28;20037;-56
2023/12/15 04:28:41;;;;;;;66.20;29.03;;;;;;;5.71;100.00;102783.31;5071618;28;20126;-56
2023/12/15 04:31:13;;;;;;;70.95;32.25;;;;;;;5.72;100.00;102780.66;5072784;28;20496;-58
2023/12/15 04:33:41;;;;;;;65.53;29.02;;;;;;;5.74;100.00;102778.06;5072786;28;20056;-57
2023/12/15 04:36:10;;;;;;;73.47;30.15;;;;;;;5.73;100.00;102776.34;5071421;28;20052;-57
2023/12/15 04:38:38;;;;;;;64.97;29.40;;;;;;;5.79;100.00;102783.22;5072624;28;20045;-56
2023/12/15 04:41:19;;;;;;;64.32;28.17;;;;;;;5.76;100.00;102786.72;5072677;28;20051;-57
2023/12/15 04:43:48;;;;;;;61.90;28.15;;;;;;;5.76;100.00;102787.56;5072441;28;20040;-57
2023/12/15 04:46:23;;;;;;;67.53;31.08;;;;;;;5.78;100.00;102789.31;5071224;28;20059;-56
2023/12/15 04:48:51;;;;;;;65.30;29.48;;;;;;;5.78;100.00;102786.69;5072410;28;20059;-57
2023/12/15 04:51:20;;;;;;;64.85;29.13;;;;;;;5.79;100.00;102789.28;5071951;28;20060;-56
2023/12/15 04:53:51;;;;;;;69.65;30.17;;;;;;;5.79;100.00;102789.28;5072577;28;20122;-57
2023/12/15 04:56:20;;;;;;;72.00;30.50;;;;;;;5.83;100.00;102800.56;5072369;28;20051;-56
2023/12/15 04:58:49;;;;;;;68.05;29.17;;;;;;;5.84;100.00;102805.75;5072174;28;20491;-57
2023/12/15 05:01:17;;;;;;;64.00;30.05;;;;;;;5.85;100.00;102810.09;5072364;28;20127;-57
2023/12/15 05:03:46;;;;;;;69.20;29.90;;;;;;;5.85;100.00;102802.28;5071862;28;20051;-56
2023/12/15 05:06:20;;;;;;;68.13;30.85;;;;;;;5.87;100.00;102807.47;5068117;28;20048;-47
2023/12/15 05:08:52;;;;;;;67.35;29.88;;;;;;;5.87;100.00;102818.75;5069153;28;20128;-48
2023/12/15 05:11:24;;;;;;;70.05;30.15;;;;;;;5.91;100.00;102814.38;5071486;28;20052;-46
2023/12/15 05:13:52;;;;;;;64.07;28.73;;;;;;;5.89;100.00;102819.63;5071755;28;20430;-46
2023/12/15 05:16:22;;;;;;;66.50;30.63;;;;;;;5.88;100.00;102815.28;5071964;28;20463;-45
2023/12/15 05:18:50;;;;;;;73.10;31.58;;;;;;;5.87;100.00;102817.91;5070979;28;20047;-45
2023/12/15 05:21:20;;;;;;;66.75;30.60;;;;;;;5.91;100.00;102836.13;5068545;28;20044;-46
2023/12/15 05:23:48;;;;;;;65.85;29.67;;;;;;;5.90;100.00;102841.38;5070218;28;20450;-46
2023/12/15 05:26:17;;;;;;;64.88;32.20;;;;;;;5.90;100.00;102839.63;5071801;28;20064;-46
2023/12/15 05:28:46;;;;;;;62.83;30.23;;;;;;;5.93;100.00;102851.75;5071589;28;20052;-46
2023/12/15 05:31:15;;;;;;;64.45;30.25;;;;;;;5.94;100.00;102863.94;5071753;28;20055;-45
2023/12/15 05:33:44;;;;;;;60.28;30.50;;;;;;;5.93;100.00;102857.00;5072172;28;20169;-46
2023/12/15 05:36:18;;;;;;;58.47;30.45;;;;;;;5.91;100.00;102858.78;5071501;28;20497;-46
2023/12/15 05:38:46;;;;;;;61.97;28.92;;;;;;;5.91;100.00;102858.78;5071806;28;20059;-46
2023/12/15 05:41:15;;;;;;;60.65;28.98;;;;;;;5.90;100.00;102863.16;5071558;28;20132;-45
2023/12/15 05:43:44;;;;;;;57.15;28.38;;;;;;;5.95;100.00;102867.44;5070251;28;20044;-55
2023/12/15 05:46:14;;;;;;;53.08;27.35;;;;;;;5.93;100.00;102852.66;5071919;28;20060;-56
2023/12/15 05:48:42;;;;;;;60.22;28.65;;;;;;;5.94;100.00;102840.44;5071462;28;20047;-55
2023/12/15 05:51:11;;;;;;;54.35;28.40;;;;;;;5.91;100.00;102857.00;5071466;28;20418;-57
2023/12/15 05:53:39;;;;;;;54.50;26.88;;;;;;;5.91;100.00;102849.19;5071585;28;20060;-57
2023/12/15 05:56:22;;;;;;;49.97;27.05;;;;;;;5.94;100.00;102853.50;5071435;28;20102;-57
2023/12/15 05:58:50;;;;;;;57.35;26.17;;;;;;;5.94;100.00;102843.06;5071306;28;20075;-58
2023/12/15 06:01:19;;;;;;;54.22;28.50;;;;;;;5.93;100.00;102859.59;5071441;28;20046;-57
2023/12/15 06:03:48;;;;;;;54.05;27.75;;;;;;;5.95;100.00;102860.47;5071280;28;20064;-57
2023/12/15 06:06:16;;;;;;;52.75;27.92;;;;;;;5.97;100.00;102857.81;5071206;28;20051;-56
2023/12/15 06:08:44;;;;;;;54.47;28.27;;;;;;;5.99;100.00;102874.38;5071517;28;20041;-57
2023/12/15 06:11:13;;;;;;;62.10;29.95;;;;;;;5.97;100.00;102876.09;5071172;28;20040;-58
2023/12/15 06:13:41;;;;;;;58.72;28.67;;;;;;;5.97;100.00;102876.09;5071227;28;20057;-57
2023/12/15 06:16:19;;;;;;;56.75;28.30;;;;;;;5.98;100.00;102883.94;5071336;28;20048;-57
2023/12/15 06:18:47;;;;;;;63.88;27.75;;;;;;;6.00;100.00;102883.94;5071068;28;20059;-57
2023/12/15 06:21:22;;;;;;;57.67;29.05;;;;;;;6.01;100.00;102883.03;5074588;28;20048;-58
2023/12/15 06:23:51;;;;;;;71.05;30.27;;;;;;;6.00;100.00;102892.66;5075349;28;20055;-57
2023/12/15 06:26:20;;;;;;;58.55;29.23;;;;;;;6.03;100.00;102899.59;5075131;28;20151;-58
2023/12/15 06:28:49;;;;;;;68.57;29.48;;;;;;;6.02;100.00;102906.53;5075015;28;20111;-58
2023/12/15 06:31:21;;;;;;;62.65;27.73;;;;;;;6.04;100.00;102899.56;5075003;28;20125;-58
2023/12/15 06:33:50;;;;;;;63.65;29.40;;;;;;;6.06;100.00;102912.59;5073100;28;20063;-58
2023/12/15 06:36:18;;;;;;;64.68;28.55;;;;;;;6.09;100.00;102909.94;5071369;28;20044;-57
2023/12/15 06:38:51;;;;;;;58.17;29.13;;;;;;;6.07;100.00;102914.31;5073587;28;20045;-57
2023/12/15 06:41:20;;;;;;;69.53;29.63;;;;;;;6.04;100.00;102909.13;5074817;28;20439;-58
2023/12/15 06:43:51;;;;;;;63.42;29.85;;;;;;;6.03;100.00;102908.28;5071258;28;20541;-57
2023/12/15 06:46:22;;;;;;;63.45;29.38;;;;;;;6.04;100.00;102912.63;5072273;28;20038;-56
2023/12/15 06:48:50;;;;;;;63.97;28.35;;;;;;;6.06;100.00;102925.66;5074702;28;20048;-58
2023/12/15 06:51:21;;;;;;;66.18;29.30;;;;;;;6.09;100.00;102923.88;5073206;28;20052;-57
2023/12/15 06:53:49;;;;;;;71.60;28.75;;;;;;;6.05;100.00;102919.59;5074517;28;20403;-57
2023/12/15 06:56:17;;;;;;;62.53;30.02;;;;;;;6.07;100.00;102923.03;5074377;28;20044;-57
2023/12/15 06:58:48;;;;;;;66.43;30.27;;;;;;;6.09;100.00;102926.50;5073099;28;20457;-58
2023/12/15 07:01:18;;;;;;;57.40;29.58;;;;;;;6.09;100.00;102929.09;5074332;28;20040;-57
2023/12/15 07:03:48;;;;;;;66.63;29.67;;;;;;;6.13;100.00;102932.53;5074254;28;20542;-57
2023/12/15 07:06:18;;;;;;;68.18;30.42;;;;;;;6.14;100.00;102939.47;5074295;28;20048;-56
2023/12/15 07:08:50;;;;;;;64.95;29.42;;;;;;;6.12;100.00;102941.22;5074554;28;20052;-57
2023/12/15 07:11:18;;;;;;;61.53;26.95;;;;;;;6.14;100.00;102938.63;5074358;28;20048;-56
2023/12/15 07:13:46;;;;;;;60.90;28.27;;;;;;;6.15;100.00;102942.94;5074232;28;20488;-57
2023/12/15 07:16:15;;;;;;;64.47;27.98;;;;;;;6.14;100.00;102942.09;5074521;28;20049;-56
2023/12/15 07:18:43;;;;;;;61.95;27.27;;;;;;;6.14;100.00;102949.94;5074236;28;20079;-56
2023/12/15 07:21:14;;;;;;;59.80;27.17;;;;;;;6.14;100.00;102956.91;5074053;28;20041;-57
2023/12/15 07:23:42;;;;;;;66.80;28.30;;;;;;;6.16;100.00;102960.34;5074369;28;20044;-58
2023/12/15 07:26:11;;;;;;;66.25;28.83;;;;;;;6.18;100.00;102961.22;5074127;28;20602;-57
2023/12/15 07:28:39;;;;;;;53.13;26.00;;;;;;;6.19;100.00;102958.59;5074150;28;20048;-57
2023/12/15 07:31:07;;;;;;;63.97;30.83;;;;;;;6.18;100.00;102959.47;5073438;28;20043;-57
2023/12/15 07:33:39;;;;;;;55.33;28.50;;;;;;;6.20;100.00;102965.53;5073837;28;20052;-57
2023/12/15 07:36:09;;;;;;;58.00;29.55;;;;;;;6.21;100.00;102966.41;5073766;28;20494;-57
2023/12/15 07:38:39;;;;;;;66.75;30.13;;;;;;;6.20;100.00;102968.16;5070736;28;20494;-56
2023/12/15 07:41:08;;;;;;;59.53;28.63;;;;;;;6.22;100.00;102975.97;5071716;28;20044;-57
2023/12/15 07:43:38;;;;;;;58.72;29.20;;;;;;;6.21;100.00;102977.69;5073817;28;20169;-57
2023/12/15 07:46:06;;;;;;;60.55;29.05;;;;;;;6.22;100.00;102979.44;5073591;28;20056;-57
2023/12/15 07:48:34;;;;;;;62.95;27.83;;;;;;;6.22;100.00;102989.91;5073637;28;20127;-58
2023/12/15 07:51:06;;;;;;;62.10;28.08;;;;;;;6.21;100.00;102982.94;5073098;28;20098;-57
2023/12/15 07:53:37;;;;;;;57.58;26.88;;;;;;;6.23;100.00;102991.63;5071453;28;20054;-57
2023/12/15 07:56:07;;;;;;;57.58;27.15;;;;;;;6.23;100.00;102996.84;5070408;28;20136;-57
2023/12/15 07:58:35;;;;;;;56.45;27.77;;;;;;;6.25;100.00;103002.06;5071523;28;20457;-57
2023/12/15 08:01:04;;;;;;;61.38;27.65;;;;;;;6.25;100.00;103002.91;5069344;28;20442;-58
2023/12/15 08:03:32;;;;;;;58.08;26.88;;;;;;;6.28;100.00;103003.78;5070632;28;20040;-57
2023/12/15 08:06:04;;;;;;;55.33;27.63;;;;;;;6.33;100.00;103012.44;5073441;28;20041;-57
2023/12/15 08:08:32;;;;;;;59.75;27.98;;;;;;;6.33;100.00;103013.28;5073370;28;20048;-57
2023/12/15 08:11:04;;;;;;;51.92;25.42;;;;;;;6.33;100.00;103020.25;5073238;28;20051;-58
2023/12/15 08:13:34;;;;;;;59.53;28.25;;;;;;;6.34;100.00;103022.84;5073199;28;20526;-57
2023/12/15 08:16:07;;;;;;;57.83;28.38;;;;;;;6.37;100.00;103027.19;5073341;28;20560;-56
2023/12/15 08:18:41;;;;;;;57.75;28.38;;;;;;;6.38;100.00;103031.50;5073154;28;20044;-57
2023/12/15 08:21:10;;;;;;;54.28;28.25;;;;;;;6.39;100.00;103049.81;5073277;28;20072;-57
2023/12/15 08:23:39;;;;;;;47.83;28.02;;;;;;;6.38;100.00;103053.31;5072905;28;20580;-56
2023/12/15 08:26:07;;;;;;;58.05;27.73;;;;;;;6.40;100.00;103050.66;5072997;28;20049;-57
2023/12/15 08:28:37;;;;;;;53.67;26.85;;;;;;;6.41;100.00;103050.63;5073089;28;20620;-57
2023/12/15 08:31:06;;;;;;;61.35;30.13;;;;;;;6.42;100.00;103061.94;5072741;28;20049;-58
2023/12/15 08:33:34;;;;;;;63.10;28.95;;;;;;;6.42;100.00;103062.84;5072874;28;20193;-57
2023/12/15 08:36:03;;;;;;;53.28;27.02;;;;;;;6.46;100.00;103065.41;5072675;28;20500;-58
2023/12/15 08:38:31;;;;;;;54.35;28.48;;;;;;;6.47;100.00;103073.22;5072634;28;20044;-57
2023/12/15 08:40:59;;;;;;;51.70;26.23;;;;;;;6.48;100.00;103082.81;5071678;28;20044;-57
2023/12/15 08:43:27;;;;;;;53.63;26.85;;;;;;;6.49;100.00;103083.66;5066607;28;20052;-57
2023/12/15 08:45:57;;;;;;;54.97;27.90;;;;;;;6.50;100.00;103083.63;5071407;28;20078;-57
2023/12/15 08:48:25;;;;;;;51.38;25.63;;;;;;;6.51;100.00;103085.38;5072515;28;20053;-57
2023/12/15 08:50:53;;;;;;;53.83;28.55;;;;;;;6.52;100.00;103086.25;5072388;28;20048;-58
2023/12/15 08:53:22;;;;;;;52.55;28.40;;;;;;;6.52;100.00;103087.09;5072432;28;20044;-58
2023/12/15 08:55:50;;;;;;;51.15;26.38;;;;;;;6.54;100.00;103100.16;5071984;28;20071;-57
2023/12/15 08:58:21;;;;;;;51.80;27.17;;;;;;;6.55;100.00;103091.44;5072154;28;20045;-57
2023/12/15 09:00:49;;;;;;;54.13;26.70;;;;;;;6.55;100.00;103097.50;5072242;28;20499;-57
2023/12/15 09:03:19;;;;;;;57.13;26.60;;;;;;;6.59;100.00;103093.13;5071798;28;20040;-57
2023/12/15 09:05:48;;;;;;;47.17;26.05;;;;;;;6.62;100.00;103094.84;5072142;28;20498;-58
2023/12/15 09:08:36;;;;;;;50.45;25.50;;;;;;;6.60;100.00;103103.56;5072196;28;20135;-57
2023/12/15 09:11:07;;;;;;;48.97;25.67;;;;;;;6.62;100.00;103105.31;5069899;28;20123;-46
2023/12/15 09:13:36;;;;;;;47.42;25.25;;;;;;;6.63;100.00;103112.28;5067377;28;20441;-48
2023/12/15 09:16:04;;;;;;;48.80;25.40;;;;;;;6.68;100.00;103121.78;5071337;28;20495;-48
2023/12/15 09:18:34;;;;;;;44.55;24.80;;;;;;;6.70;100.00;103117.38;5071509;28;20053;-46
2023/12/15 09:21:02;;;;;;;48.70;26.70;;;;;;;6.72;100.00;103118.25;5071529;28;20045;-46
2023/12/15 09:23:32;;;;;;;49.60;25.27;;;;;;;6.73;100.00;103130.41;5072015;28;20052;-47
2023/12/15 09:26:01;;;;;;;47.20;24.25;;;;;;;6.77;100.00;103136.47;5071577;28;20044;-46
2023/12/15 09:28:29;;;;;;;50.78;25.13;;;;;;;6.79;100.00;103145.19;5071805;28;20141;-46
2023/12/15 09:30:57;;;;;;;50.17;24.75;;;;;;;6.82;100.00;103146.91;5071808;28;20060;-46
2023/12/15 09:33:25;;;;;;;44.15;23.90;;;;;;;6.84;100.00;103156.44;5071838;28;20056;-46
2023/12/15 09:35:56;;;;;;;44.83;23.40;;;;;;;6.87;100.00;103172.13;5071783;28;20037;-46
2023/12/15 09:38:24;;;;;;;47.22;23.83;;;;;;;6.86;100.00;103174.75;5071853;28;20071;-45
2023/12/15 09:40:52;;;;;;;43.55;22.88;;;;;;;6.89;100.00;103180.78;5071665;28;20177;-49
2023/12/15 09:43:21;;;;;;;41.85;23.25;;;;;;;6.92;100.00;103183.38;5071869;28;20049;-44
2023/12/15 09:45:50;;;;;;;42.10;22.08;;;;;;;6.94;100.00;103197.31;5071477;28;20044;-48
2023/12/15 09:48:19;;;;;;;39.05;21.85;;;;;;;6.97;100.00;103203.38;5071504;28;20551;-44
2023/12/15 09:50:52;;;;;;;40.63;21.88;;;;;;;7.02;100.00;103206.81;5072020;28;20080;-43
2023/12/15 09:53:25;;;;;;;41.78;21.33;;;;;;;7.05;100.00;103207.63;5071630;28;20424;-46
2023/12/15 09:55:54;;;;;;;38.47;21.38;;;;;;;7.04;100.00;103205.03;5076794;28;20418;-45
2023/12/15 09:58:22;;;;;;;41.70;20.77;;;;;;;7.10;100.00;103194.47;5077063;28;20459;-46
2023/12/15 10:00:51;;;;;;;39.70;21.77;;;;;;;7.08;100.00;103199.75;5075112;28;20452;-45
2023/12/15 10:03:19;;;;;;;42.83;22.63;;;;;;;7.15;100.00;103207.53;5077062;28;20044;-48
2023/12/15 10:05:48;;;;;;;39.92;22.02;;;;;;;7.19;100.00;103199.59;5075957;28;20052;-47
2023/12/15 10:08:18;;;;;;;43.72;22.55;;;;;;;7.22;100.00;103202.16;5077151;28;20127;-46
2023/12/15 10:10:48;;;;;;;43.22;23.52;;;;;;;7.26;100.00;103206.47;5077459;28;20037;-48
2023/12/15 10:13:17;;;;;;;42.10;22.02;;;;;;;7.30;100.00;103212.56;5078027;28;20079;-46
2023/12/15 10:15:50;;;;;;;35.53;20.08;;;;;;;7.35;100.00;103221.22;5077933;28;20045;-48
2023/12/15 10:18:19;;;;;;;35.72;19.42;;;;;;;7.37;100.00;103229.91;5077425;28;20496;-46
2023/12/15 10:21:04;;;;;;;33.78;19.50;;;;;;;7.40;100.00;103231.59;5074393;28;20063;-46
2023/12/15 10:23:33;;;;;;;37.58;20.10;;;;;;;7.43;100.00;103240.28;5075599;28;20055;-45
2023/12/15 10:26:04;;;;;;;33.17;18.58;;;;;;;7.45;100.00;103242.88;5077745;28;20078;-45
2023/12/15 10:28:36;;;;;;;37.30;18.83;;;;;;;7.48;100.00;103242.84;5075977;28;20049;-47
2023/12/15 10:31:05;;;;;;;37.33;19.80;;;;;;;7.50;100.00;103251.56;5109915;28;20453;-47
2023/12/15 10:33:34;;;;;;;36.58;20.25;;;;;;;7.53;100.00;103248.88;5077614;28;20048;-46
2023/12/15 10:36:03;;;;;;;37.38;18.98;;;;;;;7.57;100.00;103258.44;5077158;28;20381;-46
2023/12/15 10:38:32;;;;;;;30.27;18.05;;;;;;;7.61;100.00;103265.34;5077107;28;20453;-45
2023/12/15 10:41:02;;;;;;;33.63;18.52;;;;;;;7.63;100.00;103280.19;5074748;28;20040;-49
2023/12/15 10:43:32;;;;;;;33.63;17.90;;;;;;;7.65;100.00;103274.06;5072167;28;20052;-45
2023/12/15 10:46:03;;;;;;;34.20;18.02;;;;;;;7.69;100.00;103280.09;5076699;28;20560;-46
2023/12/15 10:48:34;;;;;;;30.10;17.02;;;;;;;7.72;100.00;103283.53;5077275;28;20044;-46
2023/12/15 10:51:04;;;;;;;28.48;16.77;;;;;;;7.74;100.00;103278.28;5076872;28;20511;-46
2023/12/15 10:53:33;;;;;;;33.85;17.27;;;;;;;7.74;100.00;103267.81;5077341;28;20045;-46
2023/12/15 10:56:07;;;;;;;35.80;17.00;;;;;;;7.75;100.00;103273.00;5076814;28;20114;-46
2023/12/15 10:58:35;;;;;;;27.77;17.23;;;;;;;7.78;100.00;103266.88;5076121;28;20070;-48
2023/12/15 11:01:09;;;;;;;25.88;16.17;;;;;;;7.79;100.00;103273.84;5076033;28;20503;-45
2023/12/15 11:03:38;;;;;;;27.60;15.15;;;;;;;7.82;100.00;103279.03;5077580;28;20071;-46
2023/12/15 11:06:07;;;;;;;29.27;15.45;;;;;;;7.85;100.00;103292.06;5075343;28;20127;-46
2023/12/15 11:08:39;;;;;;;;;;;;;;;7.86;100.00;103298.19;5074180;28;20052;-49
2023/12/15 11:11:21;;;;;;;30.73;13.85;;;;;;;7.91;100.00;103299.00;5073294;28;19920;-45
2023/12/15 11:13:53;;;;;;;29.52;14.00;;;;;;;7.91;100.00;103294.63;5070770;28;20555;-46
2023/12/15 11:16:24;;;;;;;28.03;14.07;;;;;;;7.91;100.00;103292.00;5072809;28;20040;-47
2023/12/15 11:18:56;;;;;;;32.22;14.15;;;;;;;7.93;100.00;103295.47;5074229;28;20458;-47